Time;durP1;ratioP1;P1;durP2;ratioP2;P2;SDS_P1;SDS_P2;PMS_P1;PMS_P2;Temp;Humidity;BMP_temperature;BMP_pressure;BME280_temperature;BME280_humidity;BME280_pressure;Samples;Min_cycle;Max_cycle;Signal;HPM_P1;HPM_P2
2022/01/13 00:01:18;;;;;;;62.50;24.80;;;4.20;99.90;;;;;;6302907;22;19984;-91
2022/01/13 00:03:45;;;;;;;62.65;24.45;;;4.20;99.90;;;;;;6277080;22;20022;-91
2022/01/13 00:06:11;;;;;;;61.63;23.10;;;4.30;99.90;;;;;;6277328;22;20030;-91
2022/01/13 00:08:37;;;;;;;59.73;24.87;;;4.20;99.90;;;;;;6301774;22;20012;-90
2022/01/13 00:11:03;;;;;;;60.27;24.83;;;4.20;99.90;;;;;;6277036;22;20059;-91
2022/01/13 00:13:43;;;;;;;60.03;24.00;;;4.20;99.90;;;;;;6263983;22;20019;-90
2022/01/13 00:19:05;;;;;;;60.53;24.17;;;4.20;99.90;;;;;;6274105;22;20014;-91
2022/01/13 00:21:36;;;;;;;67.70;24.08;;;4.20;99.90;;;;;;6248764;22;20000;-90
2022/01/13 00:24:04;;;;;;;59.77;23.57;;;4.20;99.90;;;;;;6248936;22;20039;-90
2022/01/13 00:26:32;;;;;;;56.20;23.20;;;4.30;99.90;;;;;;6248561;22;20039;-91
2022/01/13 00:29:02;;;;;;;60.23;23.73;;;4.30;99.90;;;;;;6248139;22;20428;-91
2022/01/13 00:31:32;;;;;;;62.30;23.13;;;4.30;99.90;;;;;;6273782;22;20032;-91
2022/01/13 00:34:01;;;;;;;59.07;22.93;;;4.30;99.90;;;;;;6273952;22;20035;-90
2022/01/13 00:36:30;;;;;;;59.47;23.08;;;4.30;99.90;;;;;;6248604;22;20012;-91
2022/01/13 00:38:56;;;;;;;63.65;23.45;;;4.30;99.90;;;;;;6247826;22;20008;-90
2022/01/13 00:41:26;;;;;;;56.47;22.27;;;4.30;99.90;;;;;;6273690;22;20010;-90
2022/01/13 00:43:51;;;;;;;56.80;23.15;;;4.30;99.90;;;;;;6248466;22;20338;-90
2022/01/13 00:46:22;;;;;;;61.30;23.37;;;4.30;99.90;;;;;;6273906;22;20079;-91
2022/01/13 00:48:51;;;;;;;64.80;23.73;;;4.30;99.90;;;;;;6247834;22;20034;-91
2022/01/13 00:51:18;;;;;;;64.50;24.57;;;4.20;99.90;;;;;;6273684;22;20377;-90
2022/01/13 00:53:43;;;;;;;66.60;25.37;;;4.30;99.90;;;;;;6248179;22;20034;-91
2022/01/13 00:56:10;;;;;;;60.67;24.57;;;4.30;99.90;;;;;;6248325;22;20435;-91
2022/01/13 00:58:36;;;;;;;61.50;24.63;;;4.30;99.90;;;;;;6273115;22;20012;-91
2022/01/13 01:01:05;;;;;;;63.70;24.83;;;4.20;99.90;;;;;;6248217;22;20015;-91
2022/01/13 01:03:31;;;;;;;62.72;24.60;;;4.30;99.90;;;;;;6248270;22;20003;-90
2022/01/13 01:05:58;;;;;;;62.60;23.33;;;4.30;99.90;;;;;;6248115;22;20404;-90
2022/01/13 01:08:25;;;;;;;63.83;24.27;;;4.30;99.90;;;;;;6247506;22;20023;-90
2022/01/13 01:10:53;;;;;;;64.03;24.87;;;4.20;99.90;;;;;;6273570;22;20453;-91
2022/01/13 01:13:25;;;;;;;65.38;24.50;;;4.20;99.90;;;;;;6248292;22;20012;-90
2022/01/13 01:15:54;;;;;;;61.57;24.53;;;4.30;99.90;;;;;;6248787;22;20004;-90
2022/01/13 01:23:36;;;;;;;70.00;25.10;;;4.30;99.90;;;;;;6275722;22;20456;-90
2022/01/13 01:26:23;;;;;;;63.47;25.90;;;4.30;99.90;;;;;;6250248;22;20443;-90
2022/01/13 01:29:06;;;;;;;70.37;26.80;;;4.20;99.90;;;;;;6249392;22;20011;-90
2022/01/13 01:31:35;;;;;;;63.67;26.23;;;4.20;99.90;;;;;;6249925;22;20650;-91
2022/01/13 01:36:27;;;;;;;68.20;26.60;;;4.20;99.90;;;;;;6275455;22;20331;-91
2022/01/13 01:38:55;;;;;;;64.63;25.20;;;4.20;99.90;;;;;;6249235;22;20008;-91
2022/01/13 01:41:21;;;;;;;67.93;26.43;;;4.20;99.90;;;;;;6249906;22;20011;-91
2022/01/13 01:43:48;;;;;;;74.07;26.90;;;4.20;99.90;;;;;;6249809;22;20008;-91
2022/01/13 01:46:14;;;;;;;74.43;27.50;;;4.20;99.90;;;;;;6249898;22;20015;-90
2022/01/13 01:48:40;;;;;;;70.03;26.53;;;4.20;99.90;;;;;;6275203;22;20473;-90
2022/01/13 01:51:07;;;;;;;74.67;28.33;;;4.20;99.90;;;;;;6275041;22;20101;-90
2022/01/13 01:53:35;;;;;;;74.07;28.03;;;4.20;99.90;;;;;;6275343;22;20293;-90
2022/01/13 01:56:03;;;;;;;64.90;26.23;;;4.20;99.90;;;;;;6249860;22;20011;-91
2022/01/13 01:58:29;;;;;;;68.50;26.90;;;4.20;99.90;;;;;;6274694;22;20313;-90
2022/01/13 02:00:56;;;;;;;70.70;27.13;;;4.20;99.90;;;;;;6249478;22;20015;-90
2022/01/13 02:03:26;;;;;;;74.13;27.97;;;4.20;99.90;;;;;;6275531;22;20057;-89
2022/01/13 02:05:53;;;;;;;74.27;27.27;;;4.20;99.90;;;;;;6249715;22;20351;-90
2022/01/13 02:08:18;;;;;;;70.83;27.13;;;4.20;99.90;;;;;;6248890;22;20090;-90
2022/01/13 02:10:45;;;;;;;69.90;26.63;;;4.20;99.90;;;;;;6249486;22;20383;-90
2022/01/13 02:13:14;;;;;;;70.80;28.60;;;4.20;99.90;;;;;;6249816;22;20138;-91
2022/01/13 02:16:01;;;;;;;71.93;27.27;;;4.20;99.90;;;;;;6252051;22;20122;-90
2022/01/13 02:18:29;;;;;;;70.50;28.07;;;4.20;99.90;;;;;;6254563;22;20014;-90
2022/01/13 02:20:56;;;;;;;80.63;28.13;;;4.20;99.90;;;;;;6250543;22;20054;-91
2022/01/13 02:23:31;;;;;;;78.83;29.10;;;4.20;99.90;;;;;;6249431;22;20008;-90
2022/01/13 02:25:56;;;;;;;69.13;27.43;;;4.20;99.90;;;;;;6275097;22;20011;-90
2022/01/13 02:28:23;;;;;;;73.17;27.13;;;4.10;99.90;;;;;;6274336;22;20472;-90
2022/01/13 02:30:49;;;;;;;75.10;27.37;;;4.10;99.90;;;;;;6279461;22;20450;-91
2022/01/13 02:33:14;;;;;;;75.30;28.67;;;4.10;99.90;;;;;;6252681;22;20015;-91
2022/01/13 02:35:40;;;;;;;73.27;27.80;;;4.10;99.90;;;;;;6252869;22;20361;-92
2022/01/13 02:38:10;;;;;;;70.23;27.93;;;4.10;99.90;;;;;;6275781;22;20018;-90
2022/01/13 02:40:37;;;;;;;67.03;26.10;;;4.10;99.90;;;;;;6274843;22;20004;-90
2022/01/13 02:43:04;;;;;;;74.57;27.97;;;4.10;99.90;;;;;;6274885;22;20071;-89
2022/01/13 02:45:34;;;;;;;76.50;27.93;;;4.10;99.90;;;;;;6274937;22;20031;-90
2022/01/13 02:50:26;;;;;;;77.13;27.80;;;4.10;99.90;;;;;;6276149;22;20066;-91
2022/01/13 02:52:51;;;;;;;80.93;28.80;;;4.10;99.90;;;;;;6274902;22;20010;-90
2022/01/13 02:55:17;;;;;;;71.87;28.90;;;4.10;99.90;;;;;;6249261;22;20026;-90
2022/01/13 02:57:43;;;;;;;70.67;26.77;;;4.00;99.90;;;;;;6274240;22;20000;-91
2022/01/13 03:00:09;;;;;;;69.50;27.53;;;4.10;99.90;;;;;;6249495;22;20007;-90
2022/01/13 03:02:35;;;;;;;73.50;26.13;;;4.10;99.90;;;;;;6274270;22;20101;-90
2022/01/13 03:05:01;;;;;;;74.57;27.03;;;4.10;99.90;;;;;;6248834;22;20450;-90
2022/01/13 03:07:30;;;;;;;75.80;27.70;;;4.00;99.90;;;;;;6274351;22;20012;-91
2022/01/13 03:09:56;;;;;;;77.63;29.15;;;4.00;99.90;;;;;;6248659;22;20008;-90
2022/01/13 03:12:24;;;;;;;85.37;30.13;;;4.10;99.90;;;;;;6248677;22;20465;-90
2022/01/13 03:14:50;;;;;;;77.40;29.53;;;4.00;99.90;;;;;;6248736;22;20099;-90
2022/01/13 03:17:19;;;;;;;75.10;28.30;;;4.00;99.90;;;;;;6248896;22;20035;-90
2022/01/13 03:19:44;;;;;;;81.80;29.38;;;4.00;99.90;;;;;;6273546;22;20014;-90
2022/01/13 03:22:10;;;;;;;80.57;30.03;;;4.00;99.90;;;;;;6274193;22;20039;-90
2022/01/13 03:24:36;;;;;;;82.30;30.00;;;4.00;99.90;;;;;;6274440;22;20084;-90
2022/01/13 03:27:03;;;;;;;77.43;28.90;;;4.10;99.90;;;;;;6274329;22;20061;-90
2022/01/13 03:29:30;;;;;;;75.90;29.23;;;4.00;99.90;;;;;;6248258;22;20014;-90
2022/01/13 03:31:55;;;;;;;77.93;28.73;;;4.00;99.90;;;;;;6248651;22;20004;-90
2022/01/13 03:34:21;;;;;;;81.87;31.67;;;4.00;99.90;;;;;;6250562;22;20014;-90
2022/01/13 03:36:47;;;;;;;87.80;33.07;;;4.00;99.90;;;;;;6274129;22;20328;-90
2022/01/13 03:39:13;;;;;;;83.50;30.43;;;3.90;99.90;;;;;;6273270;22;20095;-90
2022/01/13 03:41:40;;;;;;;77.50;30.90;;;3.90;99.90;;;;;;6248779;22;20354;-90
2022/01/13 03:44:08;;;;;;;79.83;30.53;;;3.90;99.90;;;;;;6248608;22;20034;-90
2022/01/13 03:46:35;;;;;;;78.63;30.63;;;3.90;99.90;;;;;;6274311;22;20039;-90
2022/01/13 03:49:01;;;;;;;77.57;30.03;;;3.90;99.90;;;;;;6248171;22;20014;-91
2022/01/13 03:51:55;;;;;;;80.07;31.03;;;3.90;99.90;;;;;;6274013;22;20003;-91
2022/01/13 03:54:35;;;;;;;76.43;30.37;;;4.00;99.90;;;;;;6274132;22;20102;-90
2022/01/13 03:57:27;;;;;;;73.90;29.43;;;4.00;99.90;;;;;;6248527;22;20010;-91
2022/01/13 04:00:38;;;;;;;73.63;28.60;;;4.00;99.90;;;;;;6248115;22;20022;-91
2022/01/13 04:03:03;;;;;;;87.00;31.63;;;4.00;99.90;;;;;;6275389;22;20004;-90
2022/01/13 04:05:29;;;;;;;78.50;29.17;;;3.90;99.90;;;;;;6248418;22;20011;-91
2022/01/13 04:07:56;;;;;;;71.57;28.70;;;3.90;99.90;;;;;;6274915;22;20000;-90
2022/01/13 04:10:47;;;;;;;78.17;30.23;;;3.90;99.90;;;;;;6248421;22;20065;-90
2022/01/13 04:13:33;;;;;;;78.33;29.40;;;3.90;99.90;;;;;;6248418;22;20033;-90
2022/01/13 04:15:58;;;;;;;77.27;28.77;;;3.90;99.90;;;;;;6273904;22;20346;-90
2022/01/13 04:18:26;;;;;;;79.77;30.27;;;3.90;99.90;;;;;;6273476;22;20000;-91
2022/01/13 04:20:52;;;;;;;75.40;28.13;;;3.90;99.90;;;;;;6247740;22;20007;-90
2022/01/13 04:23:18;;;;;;;76.67;29.07;;;3.90;99.90;;;;;;6248322;22;20049;-90
2022/01/13 04:25:44;;;;;;;76.40;28.87;;;3.90;99.90;;;;;;6273773;22;20113;-90
2022/01/13 04:28:12;;;;;;;78.50;29.80;;;3.80;99.90;;;;;;6247650;22;20434;-90
2022/01/13 04:33:07;;;;;;;68.78;29.00;;;3.80;99.90;;;;;;6273647;22;20008;-90
2022/01/13 04:35:33;;;;;;;76.70;29.93;;;3.90;99.90;;;;;;6274056;22;20015;-90
2022/01/13 04:37:59;;;;;;;72.77;28.93;;;3.80;99.90;;;;;;6273455;22;20000;-90
2022/01/13 04:40:25;;;;;;;74.93;29.17;;;3.80;99.90;;;;;;6248486;22;20008;-91
2022/01/13 04:42:54;;;;;;;75.63;29.43;;;3.80;99.90;;;;;;6247962;22;20039;-90
2022/01/13 04:45:21;;;;;;;;;;;3.80;99.90;;;;;;6274754;22;20057;-90
2022/01/13 04:47:48;;;;;;;69.13;27.47;;;3.80;99.90;;;;;;6247587;22;20299;-90
2022/01/13 04:50:14;;;;;;;69.20;26.13;;;3.80;99.90;;;;;;6249034;22;20461;-91
2022/01/13 04:52:40;;;;;;;74.47;28.23;;;3.80;99.90;;;;;;6250680;22;20007;-91
2022/01/13 04:55:10;;;;;;;72.07;28.83;;;3.80;99.90;;;;;;6250232;22;20019;-91
2022/01/13 04:57:37;;;;;;;67.80;28.03;;;3.70;99.90;;;;;;6250201;22;20088;-91
2022/01/13 05:00:06;;;;;;;69.17;28.17;;;3.70;99.90;;;;;;6250140;22;20004;-90
2022/01/13 05:02:32;;;;;;;68.07;27.97;;;3.70;99.90;;;;;;6250282;22;20072;-91
2022/01/13 05:04:58;;;;;;;74.43;28.87;;;3.70;99.90;;;;;;6250431;22;20039;-90
2022/01/13 05:07:24;;;;;;;76.70;29.37;;;3.70;99.90;;;;;;6250250;22;20012;-90
2022/01/13 05:09:49;;;;;;;71.97;29.73;;;3.70;99.90;;;;;;6249261;22;20035;-90
2022/01/13 05:12:17;;;;;;;78.40;29.63;;;3.70;99.90;;;;;;6250255;22;20091;-91
2022/01/13 05:14:44;;;;;;;80.90;31.83;;;3.60;99.90;;;;;;6275353;22;20095;-90
2022/01/13 05:17:33;;;;;;;80.63;31.93;;;3.70;99.90;;;;;;6250406;22;19996;-90
2022/01/13 05:20:12;;;;;;;79.97;32.57;;;3.70;99.90;;;;;;6274926;22;20502;-90
2022/01/13 05:22:38;;;;;;;71.07;29.47;;;3.70;99.90;;;;;;6250243;22;20033;-90
2022/01/13 05:25:04;;;;;;;73.53;30.23;;;3.70;99.90;;;;;;6250032;22;20008;-90
2022/01/13 05:27:30;;;;;;;77.57;30.70;;;3.70;99.90;;;;;;6249325;22;20011;-90
2022/01/13 05:29:58;;;;;;;79.53;31.27;;;3.70;99.90;;;;;;6249419;22;20004;-90
2022/01/13 05:32:24;;;;;;;73.67;31.60;;;3.60;99.90;;;;;;6275210;22;20011;-90
2022/01/13 05:34:50;;;;;;;72.00;29.17;;;3.60;99.90;;;;;;6249660;22;20038;-90
2022/01/13 05:37:15;;;;;;;74.50;29.57;;;3.60;99.90;;;;;;6249733;22;20008;-90
2022/01/13 05:39:41;;;;;;;76.27;30.10;;;3.70;99.90;;;;;;6248901;22;20057;-90
2022/01/13 05:42:07;;;;;;;73.87;30.93;;;3.60;99.90;;;;;;6275212;22;20003;-90
2022/01/13 05:44:38;;;;;;;80.57;31.73;;;3.60;99.90;;;;;;6249654;22;20007;-90
2022/01/13 05:47:08;;;;;;;74.80;30.33;;;3.60;99.90;;;;;;6276851;22;20012;-90
2022/01/13 05:49:34;;;;;;;76.77;31.47;;;3.50;99.90;;;;;;6274827;22;20422;-91
2022/01/13 05:51:59;;;;;;;80.23;32.20;;;3.50;99.90;;;;;;6249448;22;20094;-90
2022/01/13 05:54:26;;;;;;;77.63;31.87;;;3.40;99.90;;;;;;6249529;22;20046;-90
2022/01/13 05:56:51;;;;;;;76.90;31.20;;;3.50;99.90;;;;;;6249748;22;20492;-90
2022/01/13 05:59:19;;;;;;;76.83;31.10;;;3.50;99.90;;;;;;6274313;22;20004;-90
2022/01/13 06:01:44;;;;;;;81.33;32.93;;;3.50;99.90;;;;;;6248998;22;20350;-91
2022/01/13 06:04:10;;;;;;;78.47;32.60;;;3.50;99.90;;;;;;6276579;22;20083;-90
2022/01/13 06:06:36;;;;;;;72.90;31.37;;;3.50;99.90;;;;;;6275208;22;20004;-90
2022/01/13 06:09:02;;;;;;;75.07;31.50;;;3.50;99.90;;;;;;6274464;22;20278;-90
2022/01/13 06:11:37;;;;;;;74.67;32.00;;;3.50;99.90;;;;;;6249329;22;20003;-90
2022/01/13 06:14:03;;;;;;;79.87;32.37;;;3.50;99.90;;;;;;6249331;22;20008;-90
2022/01/13 06:16:29;;;;;;;80.23;32.97;;;3.50;99.90;;;;;;6274955;22;20341;-90
2022/01/13 06:18:54;;;;;;;83.07;31.23;;;3.50;99.90;;;;;;6248690;22;20004;-90
2022/01/13 06:21:20;;;;;;;80.57;33.37;;;3.50;99.90;;;;;;6249115;22;20008;-90
2022/01/13 06:23:46;;;;;;;76.67;30.93;;;3.40;99.90;;;;;;6249460;22;20007;-90
2022/01/13 06:26:12;;;;;;;79.13;32.80;;;3.40;99.90;;;;;;6274661;22;20090;-90
2022/01/13 06:28:37;;;;;;;84.50;33.17;;;3.50;99.90;;;;;;6274564;22;19999;-90
2022/01/13 06:31:03;;;;;;;84.20;33.00;;;3.40;99.90;;;;;;6248899;22;20004;-91
2022/01/13 06:33:29;;;;;;;83.57;32.33;;;3.50;99.90;;;;;;6249109;22;20020;-91
2022/01/13 06:35:55;;;;;;;81.63;32.90;;;3.50;99.90;;;;;;6274791;22;20000;-90
2022/01/13 06:38:22;;;;;;;82.67;32.30;;;3.50;99.90;;;;;;6248557;22;20006;-91
2022/01/13 06:40:49;;;;;;;79.33;31.77;;;3.50;99.90;;;;;;6249007;22;20342;-90
2022/01/13 06:43:15;;;;;;;81.77;33.73;;;3.50;99.90;;;;;;6249219;22;20034;-90
2022/01/13 06:45:41;;;;;;;80.20;33.07;;;3.50;99.90;;;;;;6274607;22;20409;-90
2022/01/13 06:48:08;;;;;;;83.10;32.13;;;3.50;99.90;;;;;;6248411;22;20004;-90
2022/01/13 06:50:35;;;;;;;81.97;32.57;;;3.50;99.90;;;;;;6249023;22;20008;-90
2022/01/13 06:53:02;;;;;;;85.93;32.30;;;3.40;99.90;;;;;;6274335;22;20008;-90
2022/01/13 06:55:28;;;;;;;84.10;32.37;;;3.40;99.90;;;;;;6249004;22;19999;-90
2022/01/13 06:57:54;;;;;;;79.63;31.27;;;3.40;99.90;;;;;;6273813;22;20008;-90
2022/01/13 07:00:21;;;;;;;82.20;32.13;;;3.50;99.90;;;;;;6276404;22;20075;-90
2022/01/13 07:02:47;;;;;;;86.83;33.67;;;3.50;99.90;;;;;;6249261;22;20011;-90
2022/01/13 07:05:13;;;;;;;79.53;30.40;;;3.50;99.90;;;;;;6248994;22;20385;-90
2022/01/13 07:07:40;;;;;;;86.17;33.33;;;3.60;99.90;;;;;;6274630;22;20189;-90
2022/01/13 07:10:11;;;;;;;81.03;31.93;;;3.50;99.90;;;;;;6249555;22;20012;-90
2022/01/13 07:12:37;;;;;;;78.60;31.43;;;3.50;99.90;;;;;;6248646;22;20393;-90
2022/01/13 07:15:04;;;;;;;76.43;30.30;;;3.50;99.90;;;;;;6248385;22;20050;-90
2022/01/13 07:17:30;;;;;;;77.10;30.03;;;3.50;99.90;;;;;;6275796;22;20549;-90
2022/01/13 07:19:57;;;;;;;80.60;31.97;;;3.50;99.90;;;;;;6249711;22;20083;-90
2022/01/13 07:22:23;;;;;;;82.03;30.80;;;3.50;99.90;;;;;;6248696;22;19999;-90
2022/01/13 07:24:48;;;;;;;86.73;33.50;;;3.50;99.90;;;;;;6274268;22;20053;-90
2022/01/13 07:27:14;;;;;;;85.67;31.53;;;3.40;99.90;;;;;;6248599;22;20015;-90
2022/01/13 07:29:42;;;;;;;79.13;31.17;;;3.40;99.90;;;;;;6273556;22;20014;-90
2022/01/13 07:32:12;;;;;;;80.60;31.50;;;3.50;99.90;;;;;;6273931;22;20008;-90
2022/01/13 07:34:38;;;;;;;;;;;3.50;99.90;;;;;;6251132;22;20081;-90
2022/01/13 07:37:04;;;;;;;81.27;31.03;;;3.50;99.90;;;;;;6248585;22;20326;-90
2022/01/13 07:39:31;;;;;;;86.63;32.13;;;3.50;99.90;;;;;;6247996;22;20050;-90
2022/01/13 07:41:57;;;;;;;89.30;33.50;;;3.50;99.90;;;;;;6273872;22;20042;-89
2022/01/13 07:44:23;;;;;;;88.70;32.50;;;3.50;99.90;;;;;;6248627;22;20019;-90
2022/01/13 07:46:48;;;;;;;83.67;33.07;;;3.50;99.90;;;;;;6274148;22;20007;-90
2022/01/13 07:49:14;;;;;;;82.63;31.77;;;3.50;99.90;;;;;;6247534;22;20465;-90
2022/01/13 07:51:41;;;;;;;83.87;32.87;;;3.50;99.90;;;;;;6248290;22;20082;-90
2022/01/13 07:54:06;;;;;;;82.53;31.63;;;3.50;99.90;;;;;;6273981;22;20010;-90
2022/01/13 07:56:32;;;;;;;90.40;33.27;;;3.40;99.90;;;;;;6248332;22;20007;-90
2022/01/13 07:58:58;;;;;;;93.50;31.73;;;3.40;99.90;;;;;;6248692;22;20004;-90
2022/01/13 08:01:24;;;;;;;89.77;33.20;;;3.40;99.90;;;;;;6275183;22;20004;-90
2022/01/13 08:03:50;;;;;;;93.20;33.00;;;3.40;99.90;;;;;;6273855;22;20015;-90
2022/01/13 08:06:16;;;;;;;90.53;32.50;;;3.40;99.90;;;;;;6273847;22;20004;-90
2022/01/13 08:08:42;;;;;;;95.33;34.47;;;3.30;99.90;;;;;;6247615;22;20014;-89
2022/01/13 08:11:09;;;;;;;92.50;33.43;;;3.30;99.90;;;;;;6273552;22;20010;-90
2022/01/13 08:13:35;;;;;;;89.67;33.23;;;3.40;99.90;;;;;;6248225;22;20022;-90
2022/01/13 08:16:07;;;;;;;85.73;30.80;;;3.30;99.90;;;;;;6275634;22;20052;-90
2022/01/13 08:21:17;;;;;;;88.10;30.93;;;3.30;99.90;;;;;;6273801;22;20427;-90
2022/01/13 08:23:43;;;;;;;89.30;32.13;;;3.20;99.90;;;;;;6277323;22;20042;-90
2022/01/13 08:26:10;;;;;;;79.77;29.87;;;3.20;99.90;;;;;;6276215;22;20393;-90
2022/01/13 08:28:35;;;;;;;87.90;32.73;;;3.20;99.90;;;;;;6249803;22;20461;-90
2022/01/13 08:31:03;;;;;;;90.47;34.13;;;3.20;99.90;;;;;;6249517;22;20003;-90
2022/01/13 08:33:30;;;;;;;90.23;32.23;;;3.20;99.90;;;;;;6248839;22;20036;-90
2022/01/13 08:35:56;;;;;;;86.00;33.23;;;3.20;99.90;;;;;;6274948;22;20004;-91
2022/01/13 08:38:24;;;;;;;82.73;31.90;;;3.30;99.90;;;;;;6247419;22;20037;-91
2022/01/13 08:40:53;;;;;;;83.80;32.47;;;3.30;99.90;;;;;;6273621;22;20007;-89
2022/01/13 08:43:21;;;;;;;91.90;33.40;;;3.30;99.90;;;;;;6248177;22;20030;-89
2022/01/13 08:45:48;;;;;;;87.05;32.33;;;3.30;99.90;;;;;;6248203;22;20089;-88
2022/01/13 08:48:14;;;;;;;91.10;32.20;;;3.30;99.90;;;;;;6248576;22;20439;-88
2022/01/13 08:50:40;;;;;;;91.63;32.97;;;3.30;99.90;;;;;;6273394;22;20029;-88
2022/01/13 08:53:06;;;;;;;82.97;31.03;;;3.30;99.90;;;;;;6247788;22;20008;-88
2022/01/13 08:55:32;;;;;;;78.07;28.07;;;3.30;99.90;;;;;;6248071;22;20422;-88
2022/01/13 08:57:58;;;;;;;79.10;29.37;;;3.30;99.90;;;;;;6247350;22;20008;-88
2022/01/13 09:00:24;;;;;;;80.67;30.00;;;3.20;99.90;;;;;;6248867;22;20010;-87
2022/01/13 09:02:50;;;;;;;85.50;30.27;;;3.20;99.90;;;;;;6248158;22;20435;-87
2022/01/13 09:05:19;;;;;;;90.00;30.57;;;3.20;99.90;;;;;;6274969;22;20035;-87
2022/01/13 09:07:45;;;;;;;87.70;33.43;;;3.10;99.90;;;;;;6273576;22;20083;-87
2022/01/13 09:10:13;;;;;;;80.73;30.37;;;3.20;99.90;;;;;;6248010;22;20454;-87
2022/01/13 09:12:38;;;;;;;88.40;30.27;;;3.20;99.90;;;;;;6248268;22;20039;-87
2022/01/13 09:15:32;;;;;;;84.80;31.17;;;3.10;99.90;;;;;;6247759;22;20011;-87
2022/01/13 09:18:06;;;;;;;83.63;30.60;;;3.20;99.90;;;;;;6275412;22;20004;-87
2022/01/13 09:20:32;;;;;;;97.07;33.73;;;3.20;99.90;;;;;;6248128;22;20008;-87
2022/01/13 09:22:58;;;;;;;99.70;32.97;;;3.20;99.90;;;;;;6247906;22;20006;-89
2022/01/13 09:25:25;;;;;;;92.03;33.73;;;3.20;99.90;;;;;;6247783;22;20008;-87
2022/01/13 09:27:51;;;;;;;92.77;33.53;;;3.30;99.90;;;;;;6273475;22;20004;-87
2022/01/13 09:30:17;;;;;;;94.73;33.30;;;3.20;99.90;;;;;;6248118;22;20062;-87
2022/01/13 09:32:43;;;;;;;97.57;34.17;;;3.30;99.90;;;;;;6248221;22;20008;-87
2022/01/13 09:35:09;;;;;;;98.53;33.30;;;3.20;99.90;;;;;;6247887;22;20087;-87
2022/01/13 09:37:36;;;;;;;97.73;32.87;;;3.20;99.90;;;;;;6249419;22;20026;-87
2022/01/13 09:40:05;;;;;;;98.77;34.60;;;3.30;99.90;;;;;;6249717;22;20007;-87
2022/01/13 09:42:33;;;;;;;93.63;32.67;;;3.30;99.90;;;;;;6275351;22;20014;-87
2022/01/13 09:45:02;;;;;;;94.73;32.33;;;3.30;99.90;;;;;;6250050;22;20401;-87
2022/01/13 09:47:29;;;;;;;95.20;32.27;;;3.30;99.90;;;;;;6275489;22;20058;-87
2022/01/13 09:49:55;;;;;;;100.90;34.00;;;3.30;99.90;;;;;;6249666;22;20022;-87
2022/01/13 09:52:21;;;;;;;103.40;34.27;;;3.20;99.90;;;;;;6249893;22;20379;-87
2022/01/13 09:54:48;;;;;;;98.13;33.17;;;3.30;99.90;;;;;;6249656;22;20019;-89
2022/01/13 09:57:14;;;;;;;99.60;33.10;;;3.30;99.90;;;;;;6249789;22;19999;-87
2022/01/13 09:59:40;;;;;;;100.17;33.83;;;3.30;99.90;;;;;;6249515;22;20012;-87
2022/01/13 10:02:06;;;;;;;93.60;31.37;;;3.30;99.90;;;;;;6275297;22;19999;-86
2022/01/13 10:04:49;;;;;;;92.20;32.60;;;3.30;99.90;;;;;;6276651;22;20035;-87
2022/01/13 10:07:36;;;;;;;93.50;31.30;;;3.30;99.90;;;;;;6249931;22;20018;-87
2022/01/13 10:10:06;;;;;;;97.00;33.07;;;3.40;99.90;;;;;;6249686;22;20011;-87
2022/01/13 10:12:40;;;;;;;99.65;33.22;;;3.40;99.90;;;;;;6249662;22;20025;-88
2022/01/13 10:17:51;;;;;;;97.70;32.33;;;3.40;99.90;;;;;;6275211;22;20441;-87
2022/01/13 10:20:20;;;;;;;88.57;31.40;;;3.40;99.90;;;;;;6249560;22;20449;-87
2022/01/13 10:22:47;;;;;;;99.80;33.20;;;3.40;99.90;;;;;;6249402;22;19996;-88
2022/01/13 10:25:35;;;;;;;98.83;33.50;;;3.40;99.90;;;;;;6275025;22;20012;-87
2022/01/13 10:28:31;;;;;;;95.93;33.13;;;3.40;99.90;;;;;;6249586;22;20019;-87
2022/01/13 10:30:57;;;;;;;90.63;31.47;;;3.40;99.90;;;;;;6255959;22;20007;-87
2022/01/13 10:33:28;;;;;;;98.50;32.27;;;3.40;99.90;;;;;;6249278;22;20011;-87
2022/01/13 10:36:05;;;;;;;94.20;31.50;;;3.50;99.90;;;;;;6249333;22;20021;-88
2022/01/13 10:38:54;;;;;;;84.63;30.40;;;3.50;99.90;;;;;;6274698;22;20026;-87
2022/01/13 10:41:31;;;;;;;90.07;31.20;;;3.50;99.90;;;;;;6274765;22;20419;-87
2022/01/13 10:44:14;;;;;;;86.57;31.17;;;3.40;99.90;;;;;;6249368;22;20045;-87
2022/01/13 10:47:03;;;;;;;85.20;29.93;;;3.40;99.90;;;;;;6249446;22;20012;-88
2022/01/13 10:49:38;;;;;;;85.07;29.70;;;3.40;99.90;;;;;;6249134;22;20007;-87
2022/01/13 10:52:24;;;;;;;82.73;30.90;;;3.40;99.90;;;;;;6249240;22;20012;-87
2022/01/13 10:55:15;;;;;;;81.47;28.37;;;3.40;99.90;;;;;;6249367;22;20316;-89
2022/01/13 10:57:42;;;;;;;89.63;30.23;;;3.50;99.90;;;;;;6248498;22;20035;-88
2022/01/13 11:00:18;;;;;;;88.50;31.33;;;3.50;99.90;;;;;;6249354;22;20014;-89
2022/01/13 11:02:45;;;;;;;81.93;29.27;;;3.50;99.90;;;;;;6249216;22;20015;-87
2022/01/13 11:05:11;;;;;;;87.03;31.03;;;3.50;99.90;;;;;;6249049;22;20493;-87
2022/01/13 11:07:40;;;;;;;84.30;29.83;;;3.50;99.90;;;;;;6248843;22;20007;-87
2022/01/13 11:10:07;;;;;;;87.45;31.25;;;3.50;99.90;;;;;;6249048;22;20427;-87
2022/01/13 11:12:43;;;;;;;80.53;30.93;;;3.50;99.90;;;;;;6249040;22;20011;-87
2022/01/13 11:15:17;;;;;;;84.80;29.77;;;3.50;99.90;;;;;;6249123;22;20018;-88
2022/01/13 11:17:45;;;;;;;86.60;30.47;;;3.60;99.90;;;;;;6248902;22;20339;-88
2022/01/13 11:20:14;;;;;;;89.40;32.60;;;3.60;99.90;;;;;;6249031;22;20162;-87
2022/01/13 11:22:47;;;;;;;90.82;31.08;;;3.60;99.90;;;;;;6249097;22;20003;-87
2022/01/13 11:25:15;;;;;;;78.87;29.20;;;3.60;99.90;;;;;;6248799;22;20011;-88
2022/01/13 11:27:42;;;;;;;78.70;27.87;;;3.60;99.90;;;;;;6248916;22;20011;-87
2022/01/13 11:30:15;;;;;;;80.67;29.03;;;3.70;99.90;;;;;;6274474;22;20014;-87
2022/01/13 11:32:43;;;;;;;74.17;27.77;;;3.70;99.90;;;;;;6249093;22;20011;-87
2022/01/13 11:35:11;;;;;;;70.87;25.93;;;3.70;99.90;;;;;;6274390;22;20457;-88
2022/01/13 11:37:39;;;;;;;68.43;25.83;;;3.70;99.90;;;;;;6248838;22;20023;-87
2022/01/13 11:40:07;;;;;;;79.63;28.20;;;3.70;99.90;;;;;;6274161;22;20051;-87
2022/01/13 11:42:57;;;;;;;79.70;29.20;;;3.70;99.90;;;;;;6248779;22;19999;-88
2022/01/13 11:45:23;;;;;;;74.18;27.40;;;3.60;99.90;;;;;;6248973;22;20320;-88
2022/01/13 11:48:09;;;;;;;77.33;28.83;;;3.70;99.90;;;;;;6249190;22;20027;-87
2022/01/13 11:50:42;;;;;;;84.17;30.70;;;3.60;99.90;;;;;;6274593;22;20014;-88
2022/01/13 11:53:23;;;;;;;79.63;29.43;;;3.70;99.90;;;;;;6274431;22;20091;-88
2022/01/13 11:55:52;;;;;;;83.43;30.70;;;3.70;99.90;;;;;;6274472;22;20008;-87
2022/01/13 11:58:22;;;;;;;75.25;28.42;;;3.70;99.90;;;;;;6248688;22;20004;-87
2022/01/13 12:00:51;;;;;;;67.87;26.37;;;3.70;99.90;;;;;;6248569;22;20088;-88
2022/01/13 12:03:29;;;;;;;68.37;24.83;;;3.70;99.90;;;;;;6248774;22;20339;-87
2022/01/13 12:05:55;;;;;;;61.53;22.87;;;3.80;99.90;;;;;;6274279;22;20011;-88
2022/01/13 12:08:38;;;;;;;64.73;24.27;;;3.80;99.90;;;;;;6248772;22;20431;-87
2022/01/13 12:11:05;;;;;;;67.33;24.57;;;3.80;99.90;;;;;;6248677;22;20082;-88
2022/01/13 12:13:35;;;;;;;63.70;25.07;;;3.80;99.90;;;;;;6248655;22;20008;-88
2022/01/13 12:16:02;;;;;;;58.47;22.83;;;3.80;99.90;;;;;;6274231;22;20090;-88
2022/01/13 12:18:45;;;;;;;60.33;23.00;;;3.80;99.90;;;;;;6248397;22;20450;-88
2022/01/13 12:21:33;;;;;;;56.43;22.40;;;3.90;99.90;;;;;;6248460;22;20014;-88
2022/01/13 12:24:00;;;;;;;51.10;20.37;;;3.90;99.90;;;;;;6248568;22;20012;-88
2022/01/13 12:26:40;;;;;;;52.20;20.43;;;3.80;99.90;;;;;;6250409;22;20065;-88
2022/01/13 12:29:30;;;;;;;52.07;21.77;;;3.90;99.90;;;;;;6274078;22;20011;-87
2022/01/13 12:31:59;;;;;;;59.07;22.60;;;3.90;99.90;;;;;;6248448;22;20018;-87
2022/01/13 12:34:28;;;;;;;58.90;22.95;;;3.90;99.90;;;;;;6248147;22;20045;-89
2022/01/13 12:36:59;;;;;;;59.30;23.00;;;3.90;99.90;;;;;;6274084;22;20086;-88
2022/01/13 12:39:27;;;;;;;60.07;23.77;;;3.90;99.90;;;;;;6248489;22;20439;-88
2022/01/13 12:42:00;;;;;;;56.40;22.07;;;3.90;99.90;;;;;;6248817;22;20038;-88
2022/01/13 12:47:13;;;;;;;57.03;21.33;;;3.90;99.90;;;;;;6288855;22;20012;-87
2022/01/13 12:49:39;;;;;;;54.80;23.20;;;3.90;99.90;;;;;;6248461;22;20003;-87
2022/01/13 12:52:06;;;;;;;56.40;23.97;;;3.80;99.90;;;;;;6248385;22;20057;-88
2022/01/13 12:54:32;;;;;;;56.33;23.40;;;3.80;99.90;;;;;;6248117;22;20018;-87
2022/01/13 12:57:06;;;;;;;62.63;24.60;;;3.90;99.90;;;;;;6248297;22;20004;-87
2022/01/13 12:59:32;;;;;;;60.23;25.30;;;3.80;99.90;;;;;;6248361;22;20103;-88
2022/01/13 13:02:00;;;;;;;60.23;25.07;;;3.90;99.90;;;;;;6273948;22;20000;-88
2022/01/13 13:04:29;;;;;;;57.83;25.10;;;3.90;99.90;;;;;;6248030;22;20011;-89
2022/01/13 13:06:55;;;;;;;68.00;26.80;;;3.90;99.90;;;;;;6248709;22;20012;-88
2022/01/13 13:09:23;;;;;;;68.77;26.50;;;3.90;99.90;;;;;;6248218;22;20011;-88
2022/01/13 13:11:57;;;;;;;76.03;28.50;;;3.90;99.90;;;;;;6250595;22;20435;-88